Terminal Aerodrome Forecast
Issued by NWS Quad Cities IA IL

Home | Current Version | Previous Version | Text Only | Print | Product List | Glossary On
Versions: 1 2 3 4 5 6 7 8 9 10 11 12 13 14 15 16 17 18 19 20 21 22 23
023
FTUS43 KDVN 060545
TAFDBQ
TAF
KDBQ 060545Z 0606/0706 18004KT P6SM OVC050
     FM061200 21005KT 6SM BR BKN015 OVC025
     FM062000 23010KT P6SM SCT020 BKN150=

USA.gov is the U.S. government's official web portal to all federal, state and local government web resources and services.